Terminal Aerodrome Forecast
Issued by NWS

Home | Current Version | Previous Version | Text Only | Print | Product List | Glossary Off
Versions: 1 2 3 4 5 6 7 8 9 10 11 12 13 14 15 16 17 18 19 20 21 22 23 24 25 26 27

323
FTUS43 KICT 191513 AAB
TAFHUT
TAF AMD
KHUT 191513Z 1915/2012 07015G22KT P6SM SCT080 OVC180
     FM191700 09013KT P6SM SCT050 OVC120
     FM192000 08013KT P6SM OVC050
     FM200000 08013KT P6SM OVC035
     FM200400 02013KT 3SM RA OVC018=

USA.gov is the U.S. government's official web portal to all federal, state and local government web resources and services.